sensor_id;sensor_type;location;lat;lon;timestamp;temperature;humidity
80238;DHT22;69544;42.138;24.742;2023-04-24T00:00:11;22.10;31.80
80238;DHT22;69544;42.138;24.742;2023-04-24T00:02:41;22.10;31.90
80238;DHT22;69544;42.138;24.742;2023-04-24T00:05:07;22.10;31.90
80238;DHT22;69544;42.138;24.742;2023-04-24T00:07:34;22.10;31.90
80238;DHT22;69544;42.138;24.742;2023-04-24T00:10:00;22.10;31.90
80238;DHT22;69544;42.138;24.742;2023-04-24T00:12:26;22.10;31.90
80238;DHT22;69544;42.138;24.742;2023-04-24T00:14:52;22.10;31.90
80238;DHT22;69544;42.138;24.742;2023-04-24T00:17:18;22.00;31.90
80238;DHT22;69544;42.138;24.742;2023-04-24T00:19:49;22.00;31.90
80238;DHT22;69544;42.138;24.742;2023-04-24T00:22:17;22.00;32.00
80238;DHT22;69544;42.138;24.742;2023-04-24T00:24:43;22.00;32.00
80238;DHT22;69544;42.138;24.742;2023-04-24T00:27:09;22.00;32.00
80238;DHT22;69544;42.138;24.742;2023-04-24T00:29:34;22.00;32.00
80238;DHT22;69544;42.138;24.742;2023-04-24T00:32:00;22.00;32.00
80238;DHT22;69544;42.138;24.742;2023-04-24T00:34:26;22.00;32.10
80238;DHT22;69544;42.138;24.742;2023-04-24T00:36:52;22.00;32.10
80238;DHT22;69544;42.138;24.742;2023-04-24T00:39:21;22.00;32.10
80238;DHT22;69544;42.138;24.742;2023-04-24T00:41:47;21.90;32.10
80238;DHT22;69544;42.138;24.742;2023-04-24T00:44:14;22.00;32.10
80238;DHT22;69544;42.138;24.742;2023-04-24T00:46:41;22.00;32.20
80238;DHT22;69544;42.138;24.742;2023-04-24T00:49:07;21.90;32.10
80238;DHT22;69544;42.138;24.742;2023-04-24T00:51:33;21.90;32.70
80238;DHT22;69544;42.138;24.742;2023-04-24T00:54:02;21.90;32.20
80238;DHT22;69544;42.138;24.742;2023-04-24T00:56:28;21.90;32.20
80238;DHT22;69544;42.138;24.742;2023-04-24T00:58:54;21.90;32.20
80238;DHT22;69544;42.138;24.742;2023-04-24T01:01:23;21.90;32.20
80238;DHT22;69544;42.138;24.742;2023-04-24T01:03:51;21.90;32.20
80238;DHT22;69544;42.138;24.742;2023-04-24T01:06:18;21.90;32.30
80238;DHT22;69544;42.138;24.742;2023-04-24T01:08:45;21.90;32.20
80238;DHT22;69544;42.138;24.742;2023-04-24T01:11:12;21.90;32.30
80238;DHT22;69544;42.138;24.742;2023-04-24T01:13:39;21.90;32.30
80238;DHT22;69544;42.138;24.742;2023-04-24T01:16:06;21.90;32.30
80238;DHT22;69544;42.138;24.742;2023-04-24T01:18:31;21.90;32.30
80238;DHT22;69544;42.138;24.742;2023-04-24T01:20:59;21.80;32.30
80238;DHT22;69544;42.138;24.742;2023-04-24T01:23:26;21.90;32.30
80238;DHT22;69544;42.138;24.742;2023-04-24T01:25:52;21.90;32.30
80238;DHT22;69544;42.138;24.742;2023-04-24T01:28:18;21.80;32.30
80238;DHT22;69544;42.138;24.742;2023-04-24T01:30:44;21.90;32.30
80238;DHT22;69544;42.138;24.742;2023-04-24T01:33:10;21.80;32.30
80238;DHT22;69544;42.138;24.742;2023-04-24T01:35:37;21.80;32.30
80238;DHT22;69544;42.138;24.742;2023-04-24T01:38:03;21.80;32.30
80238;DHT22;69544;42.138;24.742;2023-04-24T01:40:30;21.80;32.30
80238;DHT22;69544;42.138;24.742;2023-04-24T01:42:56;21.80;33.40
80238;DHT22;69544;42.138;24.742;2023-04-24T01:45:22;21.80;32.30
80238;DHT22;69544;42.138;24.742;2023-04-24T01:47:49;21.80;32.40
80238;DHT22;69544;42.138;24.742;2023-04-24T01:50:15;21.80;32.40
80238;DHT22;69544;42.138;24.742;2023-04-24T01:52:41;21.80;32.40
80238;DHT22;69544;42.138;24.742;2023-04-24T01:55:07;21.80;32.40
80238;DHT22;69544;42.138;24.742;2023-04-24T01:57:33;21.80;32.40
80238;DHT22;69544;42.138;24.742;2023-04-24T01:59:59;21.80;32.40
80238;DHT22;69544;42.138;24.742;2023-04-24T02:02:28;21.80;32.50
80238;DHT22;69544;42.138;24.742;2023-04-24T02:04:55;21.80;32.40
80238;DHT22;69544;42.138;24.742;2023-04-24T02:07:21;21.80;32.50
80238;DHT22;69544;42.138;24.742;2023-04-24T02:09:47;21.70;32.40
80238;DHT22;69544;42.138;24.742;2023-04-24T02:12:13;21.70;32.40
80238;DHT22;69544;42.138;24.742;2023-04-24T02:14:39;21.70;32.40
80238;DHT22;69544;42.138;24.742;2023-04-24T02:17:04;21.70;32.50
80238;DHT22;69544;42.138;24.742;2023-04-24T02:19:30;21.70;32.50
80238;DHT22;69544;42.138;24.742;2023-04-24T02:21:56;21.70;32.50
80238;DHT22;69544;42.138;24.742;2023-04-24T02:24:22;21.70;32.50
80238;DHT22;69544;42.138;24.742;2023-04-24T02:26:47;21.70;32.60
80238;DHT22;69544;42.138;24.742;2023-04-24T02:29:13;21.70;32.60
80238;DHT22;69544;42.138;24.742;2023-04-24T02:31:39;21.70;32.60
80238;DHT22;69544;42.138;24.742;2023-04-24T02:34:04;21.70;32.60
80238;DHT22;69544;42.138;24.742;2023-04-24T02:36:31;21.70;32.60
80238;DHT22;69544;42.138;24.742;2023-04-24T02:38:56;21.70;32.60
80238;DHT22;69544;42.138;24.742;2023-04-24T02:41:22;21.70;32.60
80238;DHT22;69544;42.138;24.742;2023-04-24T02:43:48;21.60;32.50
80238;DHT22;69544;42.138;24.742;2023-04-24T02:46:14;21.60;32.60
80238;DHT22;69544;42.138;24.742;2023-04-24T02:48:39;21.60;32.60
80238;DHT22;69544;42.138;24.742;2023-04-24T02:51:05;21.60;32.60
80238;DHT22;69544;42.138;24.742;2023-04-24T02:53:32;21.60;32.60
80238;DHT22;69544;42.138;24.742;2023-04-24T02:55:57;21.60;32.60
80238;DHT22;69544;42.138;24.742;2023-04-24T02:58:23;21.60;32.60
80238;DHT22;69544;42.138;24.742;2023-04-24T03:00:54;21.60;32.60
80238;DHT22;69544;42.138;24.742;2023-04-24T03:03:23;21.60;32.60
80238;DHT22;69544;42.138;24.742;2023-04-24T03:05:49;21.60;32.60
80238;DHT22;69544;42.138;24.742;2023-04-24T03:08:16;21.60;32.70
80238;DHT22;69544;42.138;24.742;2023-04-24T03:10:41;21.60;32.60
80238;DHT22;69544;42.138;24.742;2023-04-24T03:13:07;21.60;32.60
80238;DHT22;69544;42.138;24.742;2023-04-24T03:15:33;21.60;32.60
80238;DHT22;69544;42.138;24.742;2023-04-24T03:17:58;21.60;32.60
80238;DHT22;69544;42.138;24.742;2023-04-24T03:20:26;21.70;32.60
80238;DHT22;69544;42.138;24.742;2023-04-24T03:22:52;21.60;32.60
80238;DHT22;69544;42.138;24.742;2023-04-24T03:25:18;21.60;32.60
80238;DHT22;69544;42.138;24.742;2023-04-24T03:27:44;21.60;32.60
80238;DHT22;69544;42.138;24.742;2023-04-24T03:30:10;21.60;32.70
80238;DHT22;69544;42.138;24.742;2023-04-24T03:32:36;21.60;32.70
80238;DHT22;69544;42.138;24.742;2023-04-24T03:35:01;21.60;32.70
80238;DHT22;69544;42.138;24.742;2023-04-24T03:37:28;21.60;32.60
80238;DHT22;69544;42.138;24.742;2023-04-24T03:39:54;21.60;32.50
80238;DHT22;69544;42.138;24.742;2023-04-24T03:42:19;21.60;32.50
80238;DHT22;69544;42.138;24.742;2023-04-24T03:44:45;21.60;32.50
80238;DHT22;69544;42.138;24.742;2023-04-24T03:47:11;21.70;32.60
80238;DHT22;69544;42.138;24.742;2023-04-24T03:49:37;21.80;32.40
80238;DHT22;69544;42.138;24.742;2023-04-24T03:52:02;21.80;32.30
80238;DHT22;69544;42.138;24.742;2023-04-24T03:54:30;21.90;32.10
80238;DHT22;69544;42.138;24.742;2023-04-24T03:56:59;22.00;32.10
80238;DHT22;69544;42.138;24.742;2023-04-24T03:59:25;21.90;31.90
80238;DHT22;69544;42.138;24.742;2023-04-24T04:01:54;22.00;31.80
80238;DHT22;69544;42.138;24.742;2023-04-24T04:04:19;22.10;31.70
80238;DHT22;69544;42.138;24.742;2023-04-24T04:06:45;22.20;31.60
80238;DHT22;69544;42.138;24.742;2023-04-24T04:09:11;22.00;30.60
80238;DHT22;69544;42.138;24.742;2023-04-24T04:11:38;21.00;32.10
80238;DHT22;69544;42.138;24.742;2023-04-24T04:14:03;20.00;34.40
80238;DHT22;69544;42.138;24.742;2023-04-24T04:16:29;19.30;36.80
80238;DHT22;69544;42.138;24.742;2023-04-24T04:18:55;18.80;37.90
80238;DHT22;69544;42.138;24.742;2023-04-24T04:21:21;18.40;38.80
80238;DHT22;69544;42.138;24.742;2023-04-24T04:23:47;18.10;39.30
80238;DHT22;69544;42.138;24.742;2023-04-24T04:26:13;17.80;39.30
80238;DHT22;69544;42.138;24.742;2023-04-24T04:28:39;17.70;39.80
80238;DHT22;69544;42.138;24.742;2023-04-24T04:31:05;17.50;40.40
80238;DHT22;69544;42.138;24.742;2023-04-24T04:33:33;17.30;40.70
80238;DHT22;69544;42.138;24.742;2023-04-24T04:35:59;17.20;41.10
80238;DHT22;69544;42.138;24.742;2023-04-24T04:38:25;17.20;41.00
80238;DHT22;69544;42.138;24.742;2023-04-24T04:40:55;17.20;41.00
80238;DHT22;69544;42.138;24.742;2023-04-24T04:43:23;17.10;41.20
80238;DHT22;69544;42.138;24.742;2023-04-24T04:45:51;16.90;41.30
80238;DHT22;69544;42.138;24.742;2023-04-24T04:48:18;16.90;41.80
80238;DHT22;69544;42.138;24.742;2023-04-24T04:50:44;16.90;41.80
80238;DHT22;69544;42.138;24.742;2023-04-24T04:53:10;16.80;41.60
80238;DHT22;69544;42.138;24.742;2023-04-24T04:55:36;16.80;41.80
80238;DHT22;69544;42.138;24.742;2023-04-24T04:58:02;16.80;41.60
80238;DHT22;69544;42.138;24.742;2023-04-24T05:00:28;16.80;41.60
80238;DHT22;69544;42.138;24.742;2023-04-24T05:02:59;16.60;41.90
80238;DHT22;69544;42.138;24.742;2023-04-24T05:05:25;16.40;42.90
80238;DHT22;69544;42.138;24.742;2023-04-24T05:07:53;16.10;43.90
80238;DHT22;69544;42.138;24.742;2023-04-24T05:10:19;16.10;44.10
80238;DHT22;69544;42.138;24.742;2023-04-24T05:12:44;16.10;44.10
80238;DHT22;69544;42.138;24.742;2023-04-24T05:15:10;16.00;44.50
80238;DHT22;69544;42.138;24.742;2023-04-24T05:17:36;16.00;44.80
80238;DHT22;69544;42.138;24.742;2023-04-24T05:20:03;16.20;44.40
80238;DHT22;69544;42.138;24.742;2023-04-24T05:22:32;16.30;44.10
80238;DHT22;69544;42.138;24.742;2023-04-24T05:24:58;16.40;43.90
80238;DHT22;69544;42.138;24.742;2023-04-24T05:27:24;16.50;43.70
80238;DHT22;69544;42.138;24.742;2023-04-24T05:29:57;16.60;43.30
80238;DHT22;69544;42.138;24.742;2023-04-24T05:32:23;16.60;43.00
80238;DHT22;69544;42.138;24.742;2023-04-24T05:34:49;16.70;43.20
80238;DHT22;69544;42.138;24.742;2023-04-24T05:37:15;16.80;42.80
80238;DHT22;69544;42.138;24.742;2023-04-24T05:39:40;16.90;42.80
80238;DHT22;69544;42.138;24.742;2023-04-24T05:42:07;16.90;42.80
80238;DHT22;69544;42.138;24.742;2023-04-24T05:44:34;16.90;43.20
80238;DHT22;69544;42.138;24.742;2023-04-24T05:47:00;16.90;43.20
80238;DHT22;69544;42.138;24.742;2023-04-24T05:49:27;17.00;43.20
80238;DHT22;69544;42.138;24.742;2023-04-24T05:51:52;17.00;43.00
80238;DHT22;69544;42.138;24.742;2023-04-24T05:54:18;17.00;43.10
80238;DHT22;69544;42.138;24.742;2023-04-24T05:56:51;17.10;43.00
80238;DHT22;69544;42.138;24.742;2023-04-24T05:59:17;17.20;43.00
80238;DHT22;69544;42.138;24.742;2023-04-24T06:01:42;17.20;42.80
80238;DHT22;69544;42.138;24.742;2023-04-24T06:04:08;17.10;42.80
80238;DHT22;69544;42.138;24.742;2023-04-24T06:06:35;17.10;43.10
80238;DHT22;69544;42.138;24.742;2023-04-24T06:09:03;17.10;42.80
80238;DHT22;69544;42.138;24.742;2023-04-24T06:11:29;17.20;42.80
80238;DHT22;69544;42.138;24.742;2023-04-24T06:13:54;17.30;42.40
80238;DHT22;69544;42.138;24.742;2023-04-24T06:16:20;17.40;42.30
80238;DHT22;69544;42.138;24.742;2023-04-24T06:18:46;17.60;41.90
80238;DHT22;69544;42.138;24.742;2023-04-24T06:21:16;18.10;41.10
80238;DHT22;69544;42.138;24.742;2023-04-24T06:23:42;18.60;40.00
80238;DHT22;69544;42.138;24.742;2023-04-24T06:26:07;19.10;38.90
80238;DHT22;69544;42.138;24.742;2023-04-24T06:28:33;19.60;37.90
80238;DHT22;69544;42.138;24.742;2023-04-24T06:30:59;20.00;37.10
80238;DHT22;69544;42.138;24.742;2023-04-24T06:33:24;20.40;36.50
80238;DHT22;69544;42.138;24.742;2023-04-24T06:35:50;20.70;35.80
80238;DHT22;69544;42.138;24.742;2023-04-24T06:38:16;21.00;35.10
80238;DHT22;69544;42.138;24.742;2023-04-24T06:40:41;21.30;34.60
80238;DHT22;69544;42.138;24.742;2023-04-24T06:43:07;21.50;34.00
80238;DHT22;69544;42.138;24.742;2023-04-24T06:45:33;21.70;33.40
80238;DHT22;69544;42.138;24.742;2023-04-24T06:47:59;21.90;33.00
80238;DHT22;69544;42.138;24.742;2023-04-24T06:50:24;22.10;32.60
80238;DHT22;69544;42.138;24.742;2023-04-24T06:52:53;22.20;32.20
80238;DHT22;69544;42.138;24.742;2023-04-24T06:55:18;22.40;31.90
80238;DHT22;69544;42.138;24.742;2023-04-24T06:57:44;22.50;31.40
80238;DHT22;69544;42.138;24.742;2023-04-24T07:00:10;22.70;31.20
80238;DHT22;69544;42.138;24.742;2023-04-24T07:02:36;22.80;30.90
80238;DHT22;69544;42.138;24.742;2023-04-24T07:05:03;22.90;30.80
80238;DHT22;69544;42.138;24.742;2023-04-24T07:07:29;23.00;30.50
80238;DHT22;69544;42.138;24.742;2023-04-24T07:09:57;23.00;31.00
80238;DHT22;69544;42.138;24.742;2023-04-24T07:12:23;23.10;30.30
80238;DHT22;69544;42.138;24.742;2023-04-24T07:14:50;23.20;30.10
80238;DHT22;69544;42.138;24.742;2023-04-24T07:17:16;23.20;30.00
80238;DHT22;69544;42.138;24.742;2023-04-24T07:19:42;23.30;30.00
80238;DHT22;69544;42.138;24.742;2023-04-24T07:22:07;23.40;29.90
80238;DHT22;69544;42.138;24.742;2023-04-24T07:24:33;23.40;29.80
80238;DHT22;69544;42.138;24.742;2023-04-24T07:26:59;23.50;29.70
80238;DHT22;69544;42.138;24.742;2023-04-24T07:29:26;23.50;29.60
80238;DHT22;69544;42.138;24.742;2023-04-24T07:31:52;23.60;29.50
80238;DHT22;69544;42.138;24.742;2023-04-24T07:34:19;23.70;29.40
80238;DHT22;69544;42.138;24.742;2023-04-24T07:36:45;23.70;29.20
80238;DHT22;69544;42.138;24.742;2023-04-24T07:39:11;23.80;29.20
80238;DHT22;69544;42.138;24.742;2023-04-24T07:41:37;23.80;29.20
80238;DHT22;69544;42.138;24.742;2023-04-24T07:44:03;23.80;29.10
80238;DHT22;69544;42.138;24.742;2023-04-24T07:46:30;23.90;29.10
80238;DHT22;69544;42.138;24.742;2023-04-24T07:48:56;23.90;28.90
80238;DHT22;69544;42.138;24.742;2023-04-24T07:51:21;23.90;28.90
80238;DHT22;69544;42.138;24.742;2023-04-24T07:53:47;24.00;28.80
80238;DHT22;69544;42.138;24.742;2023-04-24T07:56:13;24.00;28.80
80238;DHT22;69544;42.138;24.742;2023-04-24T07:58:38;24.00;28.70
80238;DHT22;69544;42.138;24.742;2023-04-24T08:01:04;24.10;28.60
80238;DHT22;69544;42.138;24.742;2023-04-24T08:03:30;24.10;28.50
80238;DHT22;69544;42.138;24.742;2023-04-24T08:05:56;24.20;28.40
80238;DHT22;69544;42.138;24.742;2023-04-24T08:08:22;24.30;28.40
80238;DHT22;69544;42.138;24.742;2023-04-24T08:10:49;24.30;28.40
80238;DHT22;69544;42.138;24.742;2023-04-24T08:13:15;24.30;28.30
80238;DHT22;69544;42.138;24.742;2023-04-24T08:15:41;24.30;28.30
80238;DHT22;69544;42.138;24.742;2023-04-24T08:18:07;24.30;28.30
80238;DHT22;69544;42.138;24.742;2023-04-24T08:20:33;24.30;28.30
80238;DHT22;69544;42.138;24.742;2023-04-24T08:22:58;24.30;28.40
80238;DHT22;69544;42.138;24.742;2023-04-24T08:25:26;24.20;28.40
80238;DHT22;69544;42.138;24.742;2023-04-24T08:27:52;24.20;28.40
80238;DHT22;69544;42.138;24.742;2023-04-24T08:30:18;24.20;28.50
80238;DHT22;69544;42.138;24.742;2023-04-24T08:32:44;24.10;28.50
80238;DHT22;69544;42.138;24.742;2023-04-24T08:35:11;24.00;29.00
80238;DHT22;69544;42.138;24.742;2023-04-24T08:37:37;24.00;29.10
80238;DHT22;69544;42.138;24.742;2023-04-24T08:40:07;24.00;29.20
80238;DHT22;69544;42.138;24.742;2023-04-24T08:42:37;24.10;29.10
80238;DHT22;69544;42.138;24.742;2023-04-24T08:45:04;24.20;29.20
80238;DHT22;69544;42.138;24.742;2023-04-24T08:47:31;24.30;29.20
80238;DHT22;69544;42.138;24.742;2023-04-24T08:49:58;24.30;29.00
80238;DHT22;69544;42.138;24.742;2023-04-24T08:52:25;24.30;29.00
80238;DHT22;69544;42.138;24.742;2023-04-24T08:54:53;24.30;29.00
80238;DHT22;69544;42.138;24.742;2023-04-24T08:57:20;24.40;29.00
80238;DHT22;69544;42.138;24.742;2023-04-24T08:59:46;24.50;29.00
80238;DHT22;69544;42.138;24.742;2023-04-24T09:02:13;24.50;28.90
80238;DHT22;69544;42.138;24.742;2023-04-24T09:04:40;24.60;28.90
80238;DHT22;69544;42.138;24.742;2023-04-24T09:07:06;24.60;28.80
80238;DHT22;69544;42.138;24.742;2023-04-24T09:09:34;24.60;28.80
80238;DHT22;69544;42.138;24.742;2023-04-24T09:12:01;24.60;28.80
80238;DHT22;69544;42.138;24.742;2023-04-24T09:14:27;24.60;28.90
80238;DHT22;69544;42.138;24.742;2023-04-24T09:16:53;24.60;29.00
80238;DHT22;69544;42.138;24.742;2023-04-24T09:19:19;24.70;29.10
80238;DHT22;69544;42.138;24.742;2023-04-24T09:21:47;24.70;29.00
80238;DHT22;69544;42.138;24.742;2023-04-24T09:24:18;24.60;29.00
80238;DHT22;69544;42.138;24.742;2023-04-24T09:26:44;24.70;29.00
80238;DHT22;69544;42.138;24.742;2023-04-24T09:29:17;24.60;29.00
80238;DHT22;69544;42.138;24.742;2023-04-24T09:31:44;24.70;29.10
80238;DHT22;69544;42.138;24.742;2023-04-24T09:34:10;24.70;29.10
80238;DHT22;69544;42.138;24.742;2023-04-24T09:36:41;24.70;29.10
80238;DHT22;69544;42.138;24.742;2023-04-24T09:39:12;24.60;29.20
80238;DHT22;69544;42.138;24.742;2023-04-24T09:41:54;24.70;29.20
80238;DHT22;69544;42.138;24.742;2023-04-24T09:44:22;24.60;29.10
80238;DHT22;69544;42.138;24.742;2023-04-24T09:46:57;24.50;29.40
80238;DHT22;69544;42.138;24.742;2023-04-24T09:49:30;24.50;29.30
80238;DHT22;69544;42.138;24.742;2023-04-24T09:52:11;24.50;29.40
80238;DHT22;69544;42.138;24.742;2023-04-24T09:54:37;24.60;29.40
80238;DHT22;69544;42.138;24.742;2023-04-24T09:57:04;24.60;29.40
80238;DHT22;69544;42.138;24.742;2023-04-24T09:59:30;24.70;29.50
80238;DHT22;69544;42.138;24.742;2023-04-24T10:01:59;24.80;29.40
80238;DHT22;69544;42.138;24.742;2023-04-24T10:04:26;24.70;29.30
80238;DHT22;69544;42.138;24.742;2023-04-24T10:06:55;24.70;29.30
80238;DHT22;69544;42.138;24.742;2023-04-24T10:09:23;24.70;29.30
80238;DHT22;69544;42.138;24.742;2023-04-24T10:11:50;24.70;29.30
80238;DHT22;69544;42.138;24.742;2023-04-24T10:14:19;24.60;29.40
80238;DHT22;69544;42.138;24.742;2023-04-24T10:16:46;24.60;29.50
80238;DHT22;69544;42.138;24.742;2023-04-24T10:19:16;24.60;29.50
80238;DHT22;69544;42.138;24.742;2023-04-24T10:21:44;24.60;29.40
80238;DHT22;69544;42.138;24.742;2023-04-24T10:24:14;24.50;29.40
80238;DHT22;69544;42.138;24.742;2023-04-24T10:26:41;24.50;29.40
80238;DHT22;69544;42.138;24.742;2023-04-24T10:29:07;24.50;29.40
80238;DHT22;69544;42.138;24.742;2023-04-24T10:31:36;24.50;29.70
80238;DHT22;69544;42.138;24.742;2023-04-24T10:34:04;24.50;29.40
80238;DHT22;69544;42.138;24.742;2023-04-24T10:36:31;24.50;29.50
80238;DHT22;69544;42.138;24.742;2023-04-24T10:39:01;24.40;29.40
80238;DHT22;69544;42.138;24.742;2023-04-24T10:41:27;24.40;29.40
80238;DHT22;69544;42.138;24.742;2023-04-24T10:44:06;24.40;29.40
80238;DHT22;69544;42.138;24.742;2023-04-24T10:46:32;24.50;29.40
80238;DHT22;69544;42.138;24.742;2023-04-24T10:48:58;24.40;29.40
80238;DHT22;69544;42.138;24.742;2023-04-24T10:51:26;24.40;29.40
80238;DHT22;69544;42.138;24.742;2023-04-24T10:54:34;24.40;29.40
80238;DHT22;69544;42.138;24.742;2023-04-24T11:00:09;24.40;29.40
80238;DHT22;69544;42.138;24.742;2023-04-24T11:02:37;24.40;29.40
80238;DHT22;69544;42.138;24.742;2023-04-24T11:05:04;24.50;29.40
80238;DHT22;69544;42.138;24.742;2023-04-24T11:07:29;24.50;30.10
80238;DHT22;69544;42.138;24.742;2023-04-24T11:09:58;24.50;29.20
80238;DHT22;69544;42.138;24.742;2023-04-24T11:12:26;24.60;29.20
80238;DHT22;69544;42.138;24.742;2023-04-24T11:17:38;24.80;29.10
80238;DHT22;69544;42.138;24.742;2023-04-24T11:20:10;25.00;28.80
80238;DHT22;69544;42.138;24.742;2023-04-24T11:22:39;25.10;28.80
80238;DHT22;69544;42.138;24.742;2023-04-24T11:25:08;25.20;28.80
80238;DHT22;69544;42.138;24.742;2023-04-24T11:27:44;25.30;29.00
80238;DHT22;69544;42.138;24.742;2023-04-24T11:30:17;25.40;29.00
80238;DHT22;69544;42.138;24.742;2023-04-24T11:32:46;25.40;29.00
80238;DHT22;69544;42.138;24.742;2023-04-24T11:35:19;25.50;29.30
80238;DHT22;69544;42.138;24.742;2023-04-24T11:37:47;25.60;29.20
80238;DHT22;69544;42.138;24.742;2023-04-24T11:40:17;25.60;29.00
80238;DHT22;69544;42.138;24.742;2023-04-24T11:42:44;25.60;28.90
80238;DHT22;69544;42.138;24.742;2023-04-24T11:47:38;25.70;28.70
80238;DHT22;69544;42.138;24.742;2023-04-24T11:50:05;25.70;28.60
80238;DHT22;69544;42.138;24.742;2023-04-24T11:52:32;25.80;28.60
80238;DHT22;69544;42.138;24.742;2023-04-24T11:55:00;25.80;28.50
80238;DHT22;69544;42.138;24.742;2023-04-24T11:57:26;25.90;28.40
80238;DHT22;69544;42.138;24.742;2023-04-24T12:00:02;25.90;28.30
80238;DHT22;69544;42.138;24.742;2023-04-24T12:02:28;25.90;28.30
80238;DHT22;69544;42.138;24.742;2023-04-24T12:04:54;25.90;28.20
80238;DHT22;69544;42.138;24.742;2023-04-24T12:07:21;26.00;29.00
80238;DHT22;69544;42.138;24.742;2023-04-24T12:09:49;26.00;28.10
80238;DHT22;69544;42.138;24.742;2023-04-24T12:12:17;26.10;28.00
80238;DHT22;69544;42.138;24.742;2023-04-24T12:14:51;26.20;27.90
80238;DHT22;69544;42.138;24.742;2023-04-24T12:17:23;26.20;27.80
80238;DHT22;69544;42.138;24.742;2023-04-24T12:19:49;26.30;27.60
80238;DHT22;69544;42.138;24.742;2023-04-24T12:22:16;26.30;27.50
80238;DHT22;69544;42.138;24.742;2023-04-24T12:25:11;26.40;27.40
80238;DHT22;69544;42.138;24.742;2023-04-24T12:27:37;26.50;27.20
80238;DHT22;69544;42.138;24.742;2023-04-24T12:30:05;26.60;27.20
80238;DHT22;69544;42.138;24.742;2023-04-24T12:32:31;26.60;27.00
80238;DHT22;69544;42.138;24.742;2023-04-24T12:34:57;26.80;27.00
80238;DHT22;69544;42.138;24.742;2023-04-24T12:37:31;26.80;26.70
80238;DHT22;69544;42.138;24.742;2023-04-24T12:40:09;27.00;26.60
80238;DHT22;69544;42.138;24.742;2023-04-24T12:42:41;27.10;26.50
80238;DHT22;69544;42.138;24.742;2023-04-24T12:45:07;27.20;26.40
80238;DHT22;69544;42.138;24.742;2023-04-24T12:47:34;27.30;26.30
80238;DHT22;69544;42.138;24.742;2023-04-24T12:50:00;27.30;26.10
80238;DHT22;69544;42.138;24.742;2023-04-24T12:52:28;27.40;26.00
80238;DHT22;69544;42.138;24.742;2023-04-24T12:54:55;27.50;25.90
80238;DHT22;69544;42.138;24.742;2023-04-24T12:57:25;27.70;25.90
80238;DHT22;69544;42.138;24.742;2023-04-24T12:59:53;27.90;25.70
80238;DHT22;69544;42.138;24.742;2023-04-24T13:02:19;28.00;25.50
80238;DHT22;69544;42.138;24.742;2023-04-24T13:04:45;28.20;25.40
80238;DHT22;69544;42.138;24.742;2023-04-24T13:07:15;28.40;25.00
80238;DHT22;69544;42.138;24.742;2023-04-24T13:09:42;28.60;24.80
80238;DHT22;69544;42.138;24.742;2023-04-24T13:12:09;28.70;24.70
80238;DHT22;69544;42.138;24.742;2023-04-24T13:14:35;28.90;24.50
80238;DHT22;69544;42.138;24.742;2023-04-24T13:17:01;29.10;24.20
80238;DHT22;69544;42.138;24.742;2023-04-24T13:19:27;29.40;23.90
80238;DHT22;69544;42.138;24.742;2023-04-24T13:21:55;29.70;23.60
80238;DHT22;69544;42.138;24.742;2023-04-24T13:24:21;29.90;23.30
80238;DHT22;69544;42.138;24.742;2023-04-24T13:26:52;30.10;23.00
80238;DHT22;69544;42.138;24.742;2023-04-24T13:29:18;30.30;22.70
80238;DHT22;69544;42.138;24.742;2023-04-24T13:31:44;30.40;22.50
80238;DHT22;69544;42.138;24.742;2023-04-24T13:34:12;30.30;22.40
80238;DHT22;69544;42.138;24.742;2023-04-24T13:36:38;30.20;22.50
80238;DHT22;69544;42.138;24.742;2023-04-24T13:39:05;30.10;22.50
80238;DHT22;69544;42.138;24.742;2023-04-24T13:41:32;30.00;22.70
80238;DHT22;69544;42.138;24.742;2023-04-24T13:43:58;30.00;22.70
80238;DHT22;69544;42.138;24.742;2023-04-24T13:46:24;29.90;22.70
80238;DHT22;69544;42.138;24.742;2023-04-24T13:48:49;29.90;22.70
80238;DHT22;69544;42.138;24.742;2023-04-24T13:51:15;29.80;22.90
80238;DHT22;69544;42.138;24.742;2023-04-24T13:53:41;29.60;23.00
80238;DHT22;69544;42.138;24.742;2023-04-24T13:56:06;29.30;23.30
80238;DHT22;69544;42.138;24.742;2023-04-24T13:58:33;29.20;23.50
80238;DHT22;69544;42.138;24.742;2023-04-24T14:00:58;29.10;23.60
80238;DHT22;69544;42.138;24.742;2023-04-24T14:03:24;29.20;23.70
80238;DHT22;69544;42.138;24.742;2023-04-24T14:05:50;29.30;23.50
80238;DHT22;69544;42.138;24.742;2023-04-24T14:08:15;29.50;23.20
80238;DHT22;69544;42.138;24.742;2023-04-24T14:10:42;29.50;23.20
80238;DHT22;69544;42.138;24.742;2023-04-24T14:13:08;29.30;23.30
80238;DHT22;69544;42.138;24.742;2023-04-24T14:15:35;29.00;23.60
80238;DHT22;69544;42.138;24.742;2023-04-24T14:18:01;28.80;23.90
80238;DHT22;69544;42.138;24.742;2023-04-24T14:20:28;28.60;24.40
80238;DHT22;69544;42.138;24.742;2023-04-24T14:22:54;28.30;24.50
80238;DHT22;69544;42.138;24.742;2023-04-24T14:25:20;28.20;24.70
80238;DHT22;69544;42.138;24.742;2023-04-24T14:27:47;28.20;24.90
80238;DHT22;69544;42.138;24.742;2023-04-24T14:30:13;28.10;25.00
80238;DHT22;69544;42.138;24.742;2023-04-24T14:32:40;28.00;25.10
80238;DHT22;69544;42.138;24.742;2023-04-24T14:35:06;27.90;25.20
80238;DHT22;69544;42.138;24.742;2023-04-24T14:37:32;27.80;26.20
80238;DHT22;69544;42.138;24.742;2023-04-24T14:39:58;27.70;25.50
80238;DHT22;69544;42.138;24.742;2023-04-24T14:42:24;27.50;25.70
80238;DHT22;69544;42.138;24.742;2023-04-24T14:44:49;27.40;25.90
80238;DHT22;69544;42.138;24.742;2023-04-24T14:47:16;27.20;26.10
80238;DHT22;69544;42.138;24.742;2023-04-24T14:49:43;27.10;26.40
80238;DHT22;69544;42.138;24.742;2023-04-24T14:52:09;27.00;26.60
80238;DHT22;69544;42.138;24.742;2023-04-24T14:54:35;26.90;26.80
80238;DHT22;69544;42.138;24.742;2023-04-24T14:57:01;26.90;27.00
80238;DHT22;69544;42.138;24.742;2023-04-24T14:59:30;26.80;27.10
80238;DHT22;69544;42.138;24.742;2023-04-24T15:01:56;26.80;27.20
80238;DHT22;69544;42.138;24.742;2023-04-24T15:04:26;26.80;27.30
80238;DHT22;69544;42.138;24.742;2023-04-24T15:06:53;26.70;27.40
80238;DHT22;69544;42.138;24.742;2023-04-24T15:09:22;26.70;27.50
80238;DHT22;69544;42.138;24.742;2023-04-24T15:11:49;26.60;28.60
80238;DHT22;69544;42.138;24.742;2023-04-24T15:14:18;26.50;27.90
80238;DHT22;69544;42.138;24.742;2023-04-24T15:16:44;26.50;27.80
80238;DHT22;69544;42.138;24.742;2023-04-24T15:19:11;26.60;27.80
80238;DHT22;69544;42.138;24.742;2023-04-24T15:21:37;26.60;27.90